Terminal Aerodrome Forecast
Issued by NWS Corpus Christi, TX

Current Version | Previous Version | Text Only | Print | Product List | Glossary On
Versions: 1 2 3 4 5 6 7 8 9 10 11 12 13
000
FTUS44 KCRP 191122
TAFCRP
TAF
KCRP 191122Z 1912/2012 02005KT P6SM SCT030 SCT250
     FM191500 06004KT P6SM SCT025 SCT250
     FM191800 09009KT P6SM VCSH SCT035 BKN050
     FM192200 09014G20KT P6SM SCT035 BKN060
     FM200200 09010KT P6SM SCT025 SCT060
     FM200500 10006KT P6SM BKN018 BKN050
     FM200800 12005KT P6SM VCSH BKN012=

USA.gov is the U.S. government's official web portal to all federal, state and local government web resources and services.